<?xml version="1.0" encoding="UTF-8" standalone="no" ?>
<gpx xmlns="http://www.topografix.com/GPX/1/1" xmlns:xsi="http://www.w3.org/2001/XMLSchema-instance" xsi:schemaLocation="http://www.topografix.com/GPX/1/1 http://www.topografix.com/GPX/1/1/gpx.xsd" version="1.1" creator="VisuGPX - https://www.visugpx.com">
  <metadata>
    <name>parcours 3</name>
    <desc><![CDATA[JEUDI TOUT SEUL]]></desc>
  </metadata>
  <trk>
    <name><![CDATA[B.iCycle Track from 2011-07-21_18.48.15]]></name>
    <trkseg>
      <trkpt lat="44.82844" lon="0.99776">
        <ele>3.920029</ele>
        <time>2011-07-21T16:49:26.580Z</time>
      </trkpt>
      <trkpt lat="44.82873" lon="0.9977">
        <ele>4.920135</ele>
        <time>2011-07-21T16:49:36.615Z</time>
      </trkpt>
      <trkpt lat="44.82891" lon="0.9977">
        <ele>5.920212</ele>
        <time>2011-07-21T16:49:41.605Z</time>
      </trkpt>
      <trkpt lat="44.82914" lon="0.99768">
        <ele>7.920296</ele>
        <time>2011-07-21T16:49:46.602Z</time>
      </trkpt>
      <trkpt lat="44.82941" lon="0.99765">
        <ele>9.920399</ele>
        <time>2011-07-21T16:49:50.605Z</time>
      </trkpt>
      <trkpt lat="44.82971" lon="0.9976">
        <ele>9.920517</ele>
        <time>2011-07-21T16:49:59.606Z</time>
      </trkpt>
      <trkpt lat="44.83" lon="0.99757">
        <ele>9.920624</ele>
        <time>2011-07-21T16:50:05.605Z</time>
      </trkpt>
      <trkpt lat="44.83024" lon="0.99753">
        <ele>10.920708</ele>
        <time>2011-07-21T16:50:10.606Z</time>
      </trkpt>
      <trkpt lat="44.83044" lon="0.99749">
        <ele>10.920792</ele>
        <time>2011-07-21T16:50:13.606Z</time>
      </trkpt>
      <trkpt lat="44.83062" lon="0.99746">
        <ele>10.920849</ele>
        <time>2011-07-21T16:50:17.603Z</time>
      </trkpt>
      <trkpt lat="44.83083" lon="0.99741">
        <ele>10.920921</ele>
        <time>2011-07-21T16:50:21.608Z</time>
      </trkpt>
      <trkpt lat="44.83102" lon="0.99736">
        <ele>10.920982</ele>
        <time>2011-07-21T16:50:25.608Z</time>
      </trkpt>
      <trkpt lat="44.8312" lon="0.99732">
        <ele>10.921047</ele>
        <time>2011-07-21T16:50:29.608Z</time>
      </trkpt>
      <trkpt lat="44.83143" lon="0.99727">
        <ele>9.921124</ele>
        <time>2011-07-21T16:50:33.611Z</time>
      </trkpt>
      <trkpt lat="44.83164" lon="0.99721">
        <ele>10.921192</ele>
        <time>2011-07-21T16:50:37.607Z</time>
      </trkpt>
      <trkpt lat="44.83181" lon="0.9971">
        <ele>10.921227</ele>
        <time>2011-07-21T16:50:41.610Z</time>
      </trkpt>
      <trkpt lat="44.83197" lon="0.99698">
        <ele>10.921253</ele>
        <time>2011-07-21T16:50:45.635Z</time>
      </trkpt>
      <trkpt lat="44.83216" lon="0.99681">
        <ele>11.921268</ele>
        <time>2011-07-21T16:50:50.610Z</time>
      </trkpt>
      <trkpt lat="44.83233" lon="0.99665">
        <ele>12.921288</ele>
        <time>2011-07-21T16:50:55.610Z</time>
      </trkpt>
      <trkpt lat="44.83251" lon="0.99648">
        <ele>12.921299</ele>
        <time>2011-07-21T16:51:00.611Z</time>
      </trkpt>
      <trkpt lat="44.83268" lon="0.99632">
        <ele>13.921318</ele>
        <time>2011-07-21T16:51:05.613Z</time>
      </trkpt>
      <trkpt lat="44.83285" lon="0.99616">
        <ele>13.921333</ele>
        <time>2011-07-21T16:51:10.600Z</time>
      </trkpt>
      <trkpt lat="44.83302" lon="0.99602">
        <ele>13.921356</ele>
        <time>2011-07-21T16:51:15.609Z</time>
      </trkpt>
      <trkpt lat="44.83318" lon="0.99589">
        <ele>13.921379</ele>
        <time>2011-07-21T16:51:20.608Z</time>
      </trkpt>
      <trkpt lat="44.83335" lon="0.99575">
        <ele>13.921398</ele>
        <time>2011-07-21T16:51:26.615Z</time>
      </trkpt>
      <trkpt lat="44.8335" lon="0.99557">
        <ele>13.921402</ele>
        <time>2011-07-21T16:51:33.613Z</time>
      </trkpt>
      <trkpt lat="44.83334" lon="0.99542">
        <ele>13.92128</ele>
        <time>2011-07-21T16:51:37.608Z</time>
      </trkpt>
      <trkpt lat="44.83317" lon="0.99525">
        <ele>15.92115</ele>
        <time>2011-07-21T16:51:42.607Z</time>
      </trkpt>
      <trkpt lat="44.83303" lon="0.99505">
        <ele>18.921021</ele>
        <time>2011-07-21T16:51:47.608Z</time>
      </trkpt>
      <trkpt lat="44.8329" lon="0.99483">
        <ele>19.920891</ele>
        <time>2011-07-21T16:51:52.638Z</time>
      </trkpt>
      <trkpt lat="44.83276" lon="0.99458">
        <ele>19.920738</ele>
        <time>2011-07-21T16:51:57.606Z</time>
      </trkpt>
      <trkpt lat="44.83264" lon="0.99434">
        <ele>19.920601</ele>
        <time>2011-07-21T16:52:02.610Z</time>
      </trkpt>
      <trkpt lat="44.83251" lon="0.99409">
        <ele>19.920448</ele>
        <time>2011-07-21T16:52:07.601Z</time>
      </trkpt>
      <trkpt lat="44.83238" lon="0.99386">
        <ele>18.920322</ele>
        <time>2011-07-21T16:52:12.604Z</time>
      </trkpt>
      <trkpt lat="44.83224" lon="0.99366">
        <ele>19.920197</ele>
        <time>2011-07-21T16:52:17.602Z</time>
      </trkpt>
      <trkpt lat="44.83211" lon="0.99347">
        <ele>20.920063</ele>
        <time>2011-07-21T16:52:22.603Z</time>
      </trkpt>
      <trkpt lat="44.83198" lon="0.99327">
        <ele>20.919949</ele>
        <time>2011-07-21T16:52:27.607Z</time>
      </trkpt>
      <trkpt lat="44.83186" lon="0.99304">
        <ele>21.919807</ele>
        <time>2011-07-21T16:52:32.607Z</time>
      </trkpt>
      <trkpt lat="44.83173" lon="0.99281">
        <ele>21.91967</ele>
        <time>2011-07-21T16:52:37.604Z</time>
      </trkpt>
      <trkpt lat="44.83161" lon="0.99258">
        <ele>21.919533</ele>
        <time>2011-07-21T16:52:42.607Z</time>
      </trkpt>
      <trkpt lat="44.83148" lon="0.99236">
        <ele>22.919403</ele>
        <time>2011-07-21T16:52:47.611Z</time>
      </trkpt>
      <trkpt lat="44.83134" lon="0.99212">
        <ele>21.91927</ele>
        <time>2011-07-21T16:52:52.605Z</time>
      </trkpt>
      <trkpt lat="44.83123" lon="0.99192">
        <ele>22.919144</ele>
        <time>2011-07-21T16:52:56.605Z</time>
      </trkpt>
      <trkpt lat="44.83113" lon="0.99171">
        <ele>22.919022</ele>
        <time>2011-07-21T16:53:00.606Z</time>
      </trkpt>
      <trkpt lat="44.83102" lon="0.99149">
        <ele>21.9189</ele>
        <time>2011-07-21T16:53:04.604Z</time>
      </trkpt>
      <trkpt lat="44.83088" lon="0.99124">
        <ele>21.918758</ele>
        <time>2011-07-21T16:53:09.609Z</time>
      </trkpt>
      <trkpt lat="44.83075" lon="0.99099">
        <ele>22.918606</ele>
        <time>2011-07-21T16:53:14.603Z</time>
      </trkpt>
      <trkpt lat="44.83063" lon="0.99072">
        <ele>23.918465</ele>
        <time>2011-07-21T16:53:19.615Z</time>
      </trkpt>
      <trkpt lat="44.83054" lon="0.99047">
        <ele>24.918343</ele>
        <time>2011-07-21T16:53:24.608Z</time>
      </trkpt>
      <trkpt lat="44.83045" lon="0.99024">
        <ele>24.918221</ele>
        <time>2011-07-21T16:53:29.637Z</time>
      </trkpt>
      <trkpt lat="44.83034" lon="0.99002">
        <ele>23.918091</ele>
        <time>2011-07-21T16:53:34.598Z</time>
      </trkpt>
      <trkpt lat="44.83031" lon="0.98973">
        <ele>21.917973</ele>
        <time>2011-07-21T16:53:40.607Z</time>
      </trkpt>
      <trkpt lat="44.83042" lon="0.98951">
        <ele>19.917938</ele>
        <time>2011-07-21T16:53:44.610Z</time>
      </trkpt>
      <trkpt lat="44.83055" lon="0.98929">
        <ele>18.917923</ele>
        <time>2011-07-21T16:53:48.608Z</time>
      </trkpt>
      <trkpt lat="44.83066" lon="0.98908">
        <ele>17.917889</ele>
        <time>2011-07-21T16:53:52.609Z</time>
      </trkpt>
      <trkpt lat="44.83075" lon="0.98884">
        <ele>17.917847</ele>
        <time>2011-07-21T16:53:57.604Z</time>
      </trkpt>
      <trkpt lat="44.83115" lon="0.98855">
        <ele>14.917915</ele>
        <time>2011-07-21T16:54:11.624Z</time>
      </trkpt>
      <trkpt lat="44.83142" lon="0.98846">
        <ele>13.917999</ele>
        <time>2011-07-21T16:54:21.611Z</time>
      </trkpt>
      <trkpt lat="44.83169" lon="0.98832">
        <ele>14.918053</ele>
        <time>2011-07-21T16:54:33.576Z</time>
      </trkpt>
      <trkpt lat="44.83194" lon="0.98816">
        <ele>15.918106</ele>
        <time>2011-07-21T16:54:50.575Z</time>
      </trkpt>
      <trkpt lat="44.83221" lon="0.98818">
        <ele>15.918236</ele>
        <time>2011-07-21T16:55:32.577Z</time>
      </trkpt>
      <trkpt lat="44.83234" lon="0.98851">
        <ele>16.918411</ele>
        <time>2011-07-21T16:55:46.576Z</time>
      </trkpt>
      <trkpt lat="44.83243" lon="0.98889">
        <ele>17.918575</ele>
        <time>2011-07-21T16:56:01.576Z</time>
      </trkpt>
      <trkpt lat="44.83232" lon="0.98952">
        <ele>17.918747</ele>
        <time>2011-07-21T16:56:50.576Z</time>
      </trkpt>
      <trkpt lat="44.83231" lon="0.9899">
        <ele>18.918884</ele>
        <time>2011-07-21T16:57:04.576Z</time>
      </trkpt>
      <trkpt lat="44.83238" lon="0.99028">
        <ele>19.919044</ele>
        <time>2011-07-21T16:57:15.583Z</time>
      </trkpt>
      <trkpt lat="44.8325" lon="0.99063">
        <ele>20.919228</ele>
        <time>2011-07-21T16:57:35.576Z</time>
      </trkpt>
      <trkpt lat="44.83275" lon="0.99088">
        <ele>29.919411</ele>
        <time>2011-07-21T16:58:10.610Z</time>
      </trkpt>
      <trkpt lat="44.83286" lon="0.99097">
        <ele>33.919491</ele>
        <time>2011-07-21T16:58:41.610Z</time>
      </trkpt>
      <trkpt lat="44.83295" lon="0.99124">
        <ele>36.919632</ele>
        <time>2011-07-21T16:58:58.613Z</time>
      </trkpt>
      <trkpt lat="44.83299" lon="0.99139">
        <ele>38.919708</ele>
        <time>2011-07-21T16:59:05.611Z</time>
      </trkpt>
      <trkpt lat="44.83302" lon="0.99153">
        <ele>38.919765</ele>
        <time>2011-07-21T16:59:11.611Z</time>
      </trkpt>
      <trkpt lat="44.83308" lon="0.99191">
        <ele>40.91993</ele>
        <time>2011-07-21T16:59:33.580Z</time>
      </trkpt>
      <trkpt lat="44.83318" lon="0.99227">
        <ele>40.920094</ele>
        <time>2011-07-21T16:59:52.576Z</time>
      </trkpt>
      <trkpt lat="44.83325" lon="0.99264">
        <ele>44.920258</ele>
        <time>2011-07-21T17:00:39.585Z</time>
      </trkpt>
      <trkpt lat="44.83325" lon="0.99256">
        <ele>46.920227</ele>
        <time>2011-07-21T17:00:54.581Z</time>
      </trkpt>
      <trkpt lat="44.83351" lon="0.99271">
        <ele>48.920395</ele>
        <time>2011-07-21T17:02:03.581Z</time>
      </trkpt>
      <trkpt lat="44.83388" lon="0.99309">
        <ele>49.920681</ele>
        <time>2011-07-21T17:02:44.575Z</time>
      </trkpt>
      <trkpt lat="44.83422" lon="0.99334">
        <ele>53.920914</ele>
        <time>2011-07-21T17:03:05.574Z</time>
      </trkpt>
      <trkpt lat="44.83449" lon="0.99347">
        <ele>56.921078</ele>
        <time>2011-07-21T17:03:19.573Z</time>
      </trkpt>
      <trkpt lat="44.83472" lon="0.99368">
        <ele>62.921253</ele>
        <time>2011-07-21T17:03:36.579Z</time>
      </trkpt>
      <trkpt lat="44.83477" lon="0.99374">
        <ele>66.921295</ele>
        <time>2011-07-21T17:03:42.576Z</time>
      </trkpt>
      <trkpt lat="44.83479" lon="0.9938">
        <ele>68.921326</ele>
        <time>2011-07-21T17:03:47.572Z</time>
      </trkpt>
      <trkpt lat="44.83479" lon="0.99397">
        <ele>72.921387</ele>
        <time>2011-07-21T17:03:59.571Z</time>
      </trkpt>
      <trkpt lat="44.83478" lon="0.99414">
        <ele>77.92144</ele>
        <time>2011-07-21T17:04:16.569Z</time>
      </trkpt>
      <trkpt lat="44.83487" lon="0.99413">
        <ele>87.921478</ele>
        <time>2011-07-21T17:04:52.568Z</time>
      </trkpt>
      <trkpt lat="44.83499" lon="0.99409">
        <ele>88.921509</ele>
        <time>2011-07-21T17:05:05.574Z</time>
      </trkpt>
      <trkpt lat="44.83455" lon="0.99389">
        <ele>93.921257</ele>
        <time>2011-07-21T17:06:08.574Z</time>
      </trkpt>
      <trkpt lat="44.83428" lon="0.99361">
        <ele>92.921043</ele>
        <time>2011-07-21T17:06:13.765Z</time>
      </trkpt>
      <trkpt lat="44.83412" lon="0.99339">
        <ele>92.920898</ele>
        <time>2011-07-21T17:06:16.603Z</time>
      </trkpt>
      <trkpt lat="44.83393" lon="0.99317">
        <ele>92.920731</ele>
        <time>2011-07-21T17:06:18.609Z</time>
      </trkpt>
      <trkpt lat="44.83375" lon="0.993">
        <ele>92.920593</ele>
        <time>2011-07-21T17:06:20.602Z</time>
      </trkpt>
      <trkpt lat="44.83357" lon="0.99285">
        <ele>93.920471</ele>
        <time>2011-07-21T17:06:22.605Z</time>
      </trkpt>
      <trkpt lat="44.83337" lon="0.9927">
        <ele>92.920334</ele>
        <time>2011-07-21T17:06:25.609Z</time>
      </trkpt>
      <trkpt lat="44.83322" lon="0.99253">
        <ele>92.920197</ele>
        <time>2011-07-21T17:06:28.600Z</time>
      </trkpt>
      <trkpt lat="44.83307" lon="0.99231">
        <ele>91.920067</ele>
        <time>2011-07-21T17:06:31.601Z</time>
      </trkpt>
      <trkpt lat="44.83292" lon="0.9918">
        <ele>90.919823</ele>
        <time>2011-07-21T17:06:40.600Z</time>
      </trkpt>
      <trkpt lat="44.83289" lon="0.99153">
        <ele>90.919708</ele>
        <time>2011-07-21T17:06:45.603Z</time>
      </trkpt>
      <trkpt lat="44.83287" lon="0.99138">
        <ele>90.919647</ele>
        <time>2011-07-21T17:06:48.606Z</time>
      </trkpt>
      <trkpt lat="44.83284" lon="0.99124">
        <ele>89.919586</ele>
        <time>2011-07-21T17:06:52.599Z</time>
      </trkpt>
      <trkpt lat="44.83283" lon="0.99108">
        <ele>89.919525</ele>
        <time>2011-07-21T17:06:55.607Z</time>
      </trkpt>
      <trkpt lat="44.83281" lon="0.99095">
        <ele>91.919472</ele>
        <time>2011-07-21T17:07:00.602Z</time>
      </trkpt>
      <trkpt lat="44.83259" lon="0.99073">
        <ele>89.919296</ele>
        <time>2011-07-21T17:07:30.574Z</time>
      </trkpt>
      <trkpt lat="44.83244" lon="0.99033">
        <ele>90.919083</ele>
        <time>2011-07-21T17:07:37.570Z</time>
      </trkpt>
      <trkpt lat="44.83238" lon="0.9898">
        <ele>88.918877</ele>
        <time>2011-07-21T17:07:41.573Z</time>
      </trkpt>
      <trkpt lat="44.83236" lon="0.98934">
        <ele>87.918709</ele>
        <time>2011-07-21T17:07:45.571Z</time>
      </trkpt>
      <trkpt lat="44.83239" lon="0.98893">
        <ele>86.918564</ele>
        <time>2011-07-21T17:07:55.568Z</time>
      </trkpt>
      <trkpt lat="44.83223" lon="0.98848">
        <ele>86.918343</ele>
        <time>2011-07-21T17:08:05.570Z</time>
      </trkpt>
      <trkpt lat="44.83195" lon="0.98849">
        <ele>86.918236</ele>
        <time>2011-07-21T17:08:08.574Z</time>
      </trkpt>
      <trkpt lat="44.83169" lon="0.98866">
        <ele>86.918182</ele>
        <time>2011-07-21T17:08:14.572Z</time>
      </trkpt>
      <trkpt lat="44.83144" lon="0.9888">
        <ele>86.918129</ele>
        <time>2011-07-21T17:08:21.570Z</time>
      </trkpt>
      <trkpt lat="44.83119" lon="0.98896">
        <ele>86.918068</ele>
        <time>2011-07-21T17:08:27.571Z</time>
      </trkpt>
      <trkpt lat="44.83078" lon="0.98924">
        <ele>86.917999</ele>
        <time>2011-07-21T17:08:44.569Z</time>
      </trkpt>
      <trkpt lat="44.83038" lon="0.98948">
        <ele>85.917923</ele>
        <time>2011-07-21T17:08:53.572Z</time>
      </trkpt>
      <trkpt lat="44.83009" lon="0.98961">
        <ele>85.917847</ele>
        <time>2011-07-21T17:08:58.569Z</time>
      </trkpt>
      <trkpt lat="44.82965" lon="0.98984">
        <ele>83.917732</ele>
        <time>2011-07-21T17:09:11.571Z</time>
      </trkpt>
      <trkpt lat="44.82909" lon="0.9899">
        <ele>81.917519</ele>
        <time>2011-07-21T17:09:31.569Z</time>
      </trkpt>
      <trkpt lat="44.82861" lon="0.98994">
        <ele>81.917328</ele>
        <time>2011-07-21T17:09:39.569Z</time>
      </trkpt>
      <trkpt lat="44.82779" lon="0.98987">
        <ele>78.916946</ele>
        <time>2011-07-21T17:09:50.570Z</time>
      </trkpt>
      <trkpt lat="44.82751" lon="0.98984">
        <ele>73.916824</ele>
        <time>2011-07-21T17:09:54.574Z</time>
      </trkpt>
      <trkpt lat="44.82726" lon="0.98958">
        <ele>63.916626</ele>
        <time>2011-07-21T17:10:07.568Z</time>
      </trkpt>
      <trkpt lat="44.82729" lon="0.98919">
        <ele>62.916512</ele>
        <time>2011-07-21T17:10:15.570Z</time>
      </trkpt>
      <trkpt lat="44.82737" lon="0.98873">
        <ele>60.916374</ele>
        <time>2011-07-21T17:10:24.569Z</time>
      </trkpt>
      <trkpt lat="44.82745" lon="0.98834">
        <ele>58.916279</ele>
        <time>2011-07-21T17:10:35.567Z</time>
      </trkpt>
      <trkpt lat="44.82752" lon="0.98795">
        <ele>58.916176</ele>
        <time>2011-07-21T17:10:44.590Z</time>
      </trkpt>
      <trkpt lat="44.82759" lon="0.98765">
        <ele>58.916084</ele>
        <time>2011-07-21T17:10:49.604Z</time>
      </trkpt>
      <trkpt lat="44.82766" lon="0.98735">
        <ele>57.916004</ele>
        <time>2011-07-21T17:10:55.602Z</time>
      </trkpt>
      <trkpt lat="44.82779" lon="0.98685">
        <ele>54.915886</ele>
        <time>2011-07-21T17:11:10.598Z</time>
      </trkpt>
      <trkpt lat="44.82789" lon="0.98642">
        <ele>53.915771</ele>
        <time>2011-07-21T17:11:26.600Z</time>
      </trkpt>
      <trkpt lat="44.82797" lon="0.98595">
        <ele>52.915646</ele>
        <time>2011-07-21T17:11:37.567Z</time>
      </trkpt>
      <trkpt lat="44.82809" lon="0.98539">
        <ele>50.915504</ele>
        <time>2011-07-21T17:11:53.572Z</time>
      </trkpt>
      <trkpt lat="44.82813" lon="0.98499">
        <ele>48.915375</ele>
        <time>2011-07-21T17:12:02.570Z</time>
      </trkpt>
      <trkpt lat="44.82817" lon="0.98461">
        <ele>46.915253</ele>
        <time>2011-07-21T17:12:08.574Z</time>
      </trkpt>
      <trkpt lat="44.8282" lon="0.98423">
        <ele>44.915131</ele>
        <time>2011-07-21T17:12:17.573Z</time>
      </trkpt>
      <trkpt lat="44.82824" lon="0.98395">
        <ele>42.915047</ele>
        <time>2011-07-21T17:12:22.603Z</time>
      </trkpt>
      <trkpt lat="44.82834" lon="0.98331">
        <ele>40.914864</ele>
        <time>2011-07-21T17:12:43.599Z</time>
      </trkpt>
      <trkpt lat="44.82839" lon="0.98301">
        <ele>39.914787</ele>
        <time>2011-07-21T17:12:49.606Z</time>
      </trkpt>
      <trkpt lat="44.82842" lon="0.98274">
        <ele>39.9147</ele>
        <time>2011-07-21T17:12:55.603Z</time>
      </trkpt>
      <trkpt lat="44.82846" lon="0.98246">
        <ele>38.914612</ele>
        <time>2011-07-21T17:13:02.605Z</time>
      </trkpt>
      <trkpt lat="44.8285" lon="0.98218">
        <ele>38.914524</ele>
        <time>2011-07-21T17:13:10.596Z</time>
      </trkpt>
      <trkpt lat="44.82852" lon="0.98192">
        <ele>37.914444</ele>
        <time>2011-07-21T17:13:18.602Z</time>
      </trkpt>
      <trkpt lat="44.82857" lon="0.9814">
        <ele>36.914276</ele>
        <time>2011-07-21T17:13:35.609Z</time>
      </trkpt>
      <trkpt lat="44.82859" lon="0.9811">
        <ele>36.914192</ele>
        <time>2011-07-21T17:13:41.599Z</time>
      </trkpt>
      <trkpt lat="44.8286" lon="0.98082">
        <ele>35.914089</ele>
        <time>2011-07-21T17:13:46.600Z</time>
      </trkpt>
      <trkpt lat="44.82863" lon="0.98054">
        <ele>34.914001</ele>
        <time>2011-07-21T17:13:51.602Z</time>
      </trkpt>
      <trkpt lat="44.82864" lon="0.98025">
        <ele>34.91391</ele>
        <time>2011-07-21T17:13:57.603Z</time>
      </trkpt>
      <trkpt lat="44.82875" lon="0.97964">
        <ele>30.913742</ele>
        <time>2011-07-21T17:14:09.606Z</time>
      </trkpt>
      <trkpt lat="44.82885" lon="0.97929">
        <ele>31.913658</ele>
        <time>2011-07-21T17:14:37.566Z</time>
      </trkpt>
      <trkpt lat="44.8287" lon="0.97892">
        <ele>31.913464</ele>
        <time>2011-07-21T17:14:46.570Z</time>
      </trkpt>
      <trkpt lat="44.82865" lon="0.9785">
        <ele>31.913292</ele>
        <time>2011-07-21T17:14:55.564Z</time>
      </trkpt>
      <trkpt lat="44.82863" lon="0.97812">
        <ele>30.913147</ele>
        <time>2011-07-21T17:15:02.570Z</time>
      </trkpt>
      <trkpt lat="44.82864" lon="0.97767">
        <ele>30.912994</ele>
        <time>2011-07-21T17:15:12.569Z</time>
      </trkpt>
      <trkpt lat="44.82866" lon="0.97733">
        <ele>29.912884</ele>
        <time>2011-07-21T17:15:18.605Z</time>
      </trkpt>
      <trkpt lat="44.82871" lon="0.97683">
        <ele>27.912724</ele>
        <time>2011-07-21T17:15:28.596Z</time>
      </trkpt>
      <trkpt lat="44.82879" lon="0.97636">
        <ele>25.912594</ele>
        <time>2011-07-21T17:15:35.594Z</time>
      </trkpt>
      <trkpt lat="44.82886" lon="0.97607">
        <ele>24.912529</ele>
        <time>2011-07-21T17:15:39.603Z</time>
      </trkpt>
      <trkpt lat="44.82895" lon="0.97577">
        <ele>23.912449</ele>
        <time>2011-07-21T17:15:43.603Z</time>
      </trkpt>
      <trkpt lat="44.82903" lon="0.97553">
        <ele>22.912403</ele>
        <time>2011-07-21T17:15:47.601Z</time>
      </trkpt>
      <trkpt lat="44.82911" lon="0.97529">
        <ele>21.91235</ele>
        <time>2011-07-21T17:15:51.604Z</time>
      </trkpt>
      <trkpt lat="44.8292" lon="0.97506">
        <ele>21.9123</ele>
        <time>2011-07-21T17:15:55.613Z</time>
      </trkpt>
      <trkpt lat="44.82928" lon="0.97478">
        <ele>20.912239</ele>
        <time>2011-07-21T17:16:00.601Z</time>
      </trkpt>
      <trkpt lat="44.82931" lon="0.97466">
        <ele>20.912209</ele>
        <time>2011-07-21T17:16:02.601Z</time>
      </trkpt>
      <trkpt lat="44.82934" lon="0.97455">
        <ele>20.912186</ele>
        <time>2011-07-21T17:16:04.598Z</time>
      </trkpt>
      <trkpt lat="44.8294" lon="0.97433">
        <ele>20.912125</ele>
        <time>2011-07-21T17:16:08.600Z</time>
      </trkpt>
      <trkpt lat="44.82944" lon="0.97411">
        <ele>19.912064</ele>
        <time>2011-07-21T17:16:12.604Z</time>
      </trkpt>
      <trkpt lat="44.82946" lon="0.974">
        <ele>19.912041</ele>
        <time>2011-07-21T17:16:14.594Z</time>
      </trkpt>
      <trkpt lat="44.82947" lon="0.97389">
        <ele>19.912006</ele>
        <time>2011-07-21T17:16:16.602Z</time>
      </trkpt>
      <trkpt lat="44.82948" lon="0.9738">
        <ele>19.91198</ele>
        <time>2011-07-21T17:16:18.598Z</time>
      </trkpt>
      <trkpt lat="44.82948" lon="0.97369">
        <ele>19.911942</ele>
        <time>2011-07-21T17:16:20.612Z</time>
      </trkpt>
      <trkpt lat="44.82948" lon="0.9736">
        <ele>19.911903</ele>
        <time>2011-07-21T17:16:22.601Z</time>
      </trkpt>
      <trkpt lat="44.82948" lon="0.97353">
        <ele>18.91188</ele>
        <time>2011-07-21T17:16:25.598Z</time>
      </trkpt>
      <trkpt lat="44.82947" lon="0.97343">
        <ele>18.911839</ele>
        <time>2011-07-21T17:16:27.601Z</time>
      </trkpt>
      <trkpt lat="44.82946" lon="0.97333">
        <ele>19.911804</ele>
        <time>2011-07-21T17:16:29.601Z</time>
      </trkpt>
      <trkpt lat="44.82945" lon="0.97322">
        <ele>19.911758</ele>
        <time>2011-07-21T17:16:31.603Z</time>
      </trkpt>
      <trkpt lat="44.82943" lon="0.97312">
        <ele>19.911716</ele>
        <time>2011-07-21T17:16:33.599Z</time>
      </trkpt>
      <trkpt lat="44.82942" lon="0.97302">
        <ele>19.911667</ele>
        <time>2011-07-21T17:16:35.626Z</time>
      </trkpt>
      <trkpt lat="44.8294" lon="0.97292">
        <ele>20.911636</ele>
        <time>2011-07-21T17:16:37.602Z</time>
      </trkpt>
      <trkpt lat="44.82937" lon="0.97267">
        <ele>20.91153</ele>
        <time>2011-07-21T17:16:44.599Z</time>
      </trkpt>
      <trkpt lat="44.82942" lon="0.97215">
        <ele>20.911369</ele>
        <time>2011-07-21T17:16:57.602Z</time>
      </trkpt>
      <trkpt lat="44.82944" lon="0.97203">
        <ele>20.911335</ele>
        <time>2011-07-21T17:17:00.603Z</time>
      </trkpt>
      <trkpt lat="44.82947" lon="0.97188">
        <ele>19.911293</ele>
        <time>2011-07-21T17:17:03.604Z</time>
      </trkpt>
      <trkpt lat="44.8295" lon="0.9717">
        <ele>19.91124</ele>
        <time>2011-07-21T17:17:08.602Z</time>
      </trkpt>
      <trkpt lat="44.82952" lon="0.97157">
        <ele>18.911198</ele>
        <time>2011-07-21T17:17:12.602Z</time>
      </trkpt>
      <trkpt lat="44.82954" lon="0.97115">
        <ele>19.911064</ele>
        <time>2011-07-21T17:17:26.565Z</time>
      </trkpt>
      <trkpt lat="44.82958" lon="0.97073">
        <ele>20.910927</ele>
        <time>2011-07-21T17:17:37.563Z</time>
      </trkpt>
      <trkpt lat="44.82977" lon="0.97063">
        <ele>20.910973</ele>
        <time>2011-07-21T17:17:43.597Z</time>
      </trkpt>
      <trkpt lat="44.83015" lon="0.97061">
        <ele>21.911125</ele>
        <time>2011-07-21T17:17:51.626Z</time>
      </trkpt>
      <trkpt lat="44.83043" lon="0.97069">
        <ele>23.91127</ele>
        <time>2011-07-21T17:17:57.601Z</time>
      </trkpt>
      <trkpt lat="44.83061" lon="0.97077">
        <ele>23.911373</ele>
        <time>2011-07-21T17:18:01.595Z</time>
      </trkpt>
      <trkpt lat="44.83078" lon="0.97088">
        <ele>23.911484</ele>
        <time>2011-07-21T17:18:06.605Z</time>
      </trkpt>
      <trkpt lat="44.83097" lon="0.97102">
        <ele>22.911621</ele>
        <time>2011-07-21T17:18:11.606Z</time>
      </trkpt>
      <trkpt lat="44.83114" lon="0.97115">
        <ele>22.911743</ele>
        <time>2011-07-21T17:18:16.626Z</time>
      </trkpt>
      <trkpt lat="44.83132" lon="0.97129">
        <ele>23.911869</ele>
        <time>2011-07-21T17:18:22.597Z</time>
      </trkpt>
      <trkpt lat="44.8314" lon="0.97154">
        <ele>24.911995</ele>
        <time>2011-07-21T17:18:29.598Z</time>
      </trkpt>
      <trkpt lat="44.83145" lon="0.97181">
        <ele>25.912109</ele>
        <time>2011-07-21T17:18:36.602Z</time>
      </trkpt>
      <trkpt lat="44.83163" lon="0.9722">
        <ele>25.912315</ele>
        <time>2011-07-21T17:18:56.595Z</time>
      </trkpt>
      <trkpt lat="44.83186" lon="0.97241">
        <ele>24.912487</ele>
        <time>2011-07-21T17:19:06.603Z</time>
      </trkpt>
      <trkpt lat="44.83202" lon="0.97272">
        <ele>25.912666</ele>
        <time>2011-07-21T17:19:22.568Z</time>
      </trkpt>
      <trkpt lat="44.83202" lon="0.97314">
        <ele>24.912819</ele>
        <time>2011-07-21T17:19:33.567Z</time>
      </trkpt>
      <trkpt lat="44.83195" lon="0.97351">
        <ele>24.91291</ele>
        <time>2011-07-21T17:19:42.570Z</time>
      </trkpt>
      <trkpt lat="44.83192" lon="0.9739">
        <ele>24.913044</ele>
        <time>2011-07-21T17:19:47.568Z</time>
      </trkpt>
      <trkpt lat="44.8319" lon="0.97428">
        <ele>25.91317</ele>
        <time>2011-07-21T17:19:52.562Z</time>
      </trkpt>
      <trkpt lat="44.83189" lon="0.9747">
        <ele>25.913315</ele>
        <time>2011-07-21T17:19:59.566Z</time>
      </trkpt>
      <trkpt lat="44.83186" lon="0.97502">
        <ele>25.913418</ele>
        <time>2011-07-21T17:20:04.596Z</time>
      </trkpt>
      <trkpt lat="44.83183" lon="0.97545">
        <ele>25.913555</ele>
        <time>2011-07-21T17:20:09.605Z</time>
      </trkpt>
      <trkpt lat="44.83181" lon="0.97579">
        <ele>25.913666</ele>
        <time>2011-07-21T17:20:13.595Z</time>
      </trkpt>
      <trkpt lat="44.83179" lon="0.97604">
        <ele>25.91375</ele>
        <time>2011-07-21T17:20:15.598Z</time>
      </trkpt>
      <trkpt lat="44.83175" lon="0.97642">
        <ele>25.913872</ele>
        <time>2011-07-21T17:20:18.601Z</time>
      </trkpt>
      <trkpt lat="44.83172" lon="0.97675">
        <ele>25.913975</ele>
        <time>2011-07-21T17:20:21.642Z</time>
      </trkpt>
      <trkpt lat="44.83171" lon="0.97708">
        <ele>25.914085</ele>
        <time>2011-07-21T17:20:24.604Z</time>
      </trkpt>
      <trkpt lat="44.83171" lon="0.97743">
        <ele>25.914207</ele>
        <time>2011-07-21T17:20:27.597Z</time>
      </trkpt>
      <trkpt lat="44.8317" lon="0.97776">
        <ele>25.914322</ele>
        <time>2011-07-21T17:20:30.596Z</time>
      </trkpt>
      <trkpt lat="44.83169" lon="0.97806">
        <ele>25.914421</ele>
        <time>2011-07-21T17:20:33.600Z</time>
      </trkpt>
      <trkpt lat="44.83167" lon="0.97833">
        <ele>25.914509</ele>
        <time>2011-07-21T17:20:36.605Z</time>
      </trkpt>
      <trkpt lat="44.83166" lon="0.97859">
        <ele>25.914597</ele>
        <time>2011-07-21T17:20:39.598Z</time>
      </trkpt>
      <trkpt lat="44.83166" lon="0.97892">
        <ele>24.914707</ele>
        <time>2011-07-21T17:20:43.599Z</time>
      </trkpt>
      <trkpt lat="44.83165" lon="0.97923">
        <ele>24.914825</ele>
        <time>2011-07-21T17:20:47.599Z</time>
      </trkpt>
      <trkpt lat="44.83164" lon="0.97953">
        <ele>23.914925</ele>
        <time>2011-07-21T17:20:51.635Z</time>
      </trkpt>
      <trkpt lat="44.83164" lon="0.97983">
        <ele>23.915031</ele>
        <time>2011-07-21T17:20:55.597Z</time>
      </trkpt>
      <trkpt lat="44.83163" lon="0.98012">
        <ele>22.915119</ele>
        <time>2011-07-21T17:20:59.602Z</time>
      </trkpt>
      <trkpt lat="44.83163" lon="0.98042">
        <ele>21.915245</ele>
        <time>2011-07-21T17:21:04.041Z</time>
      </trkpt>
      <trkpt lat="44.83163" lon="0.98072">
        <ele>20.915337</ele>
        <time>2011-07-21T17:21:07.600Z</time>
      </trkpt>
      <trkpt lat="44.83163" lon="0.98102">
        <ele>19.915451</ele>
        <time>2011-07-21T17:21:11.600Z</time>
      </trkpt>
      <trkpt lat="44.83164" lon="0.98133">
        <ele>19.915558</ele>
        <time>2011-07-21T17:21:15.602Z</time>
      </trkpt>
      <trkpt lat="44.83162" lon="0.98163">
        <ele>18.915661</ele>
        <time>2011-07-21T17:21:19.595Z</time>
      </trkpt>
      <trkpt lat="44.8316" lon="0.98193">
        <ele>19.915752</ele>
        <time>2011-07-21T17:21:23.595Z</time>
      </trkpt>
      <trkpt lat="44.83157" lon="0.98223">
        <ele>20.915855</ele>
        <time>2011-07-21T17:21:27.598Z</time>
      </trkpt>
      <trkpt lat="44.83154" lon="0.98252">
        <ele>20.915943</ele>
        <time>2011-07-21T17:21:31.597Z</time>
      </trkpt>
      <trkpt lat="44.8315" lon="0.98281">
        <ele>21.916031</ele>
        <time>2011-07-21T17:21:35.600Z</time>
      </trkpt>
      <trkpt lat="44.83147" lon="0.98311">
        <ele>21.916122</ele>
        <time>2011-07-21T17:21:39.598Z</time>
      </trkpt>
      <trkpt lat="44.83146" lon="0.9834">
        <ele>22.916222</ele>
        <time>2011-07-21T17:21:43.596Z</time>
      </trkpt>
      <trkpt lat="44.83145" lon="0.98369">
        <ele>23.916313</ele>
        <time>2011-07-21T17:21:47.598Z</time>
      </trkpt>
      <trkpt lat="44.83143" lon="0.984">
        <ele>23.91642</ele>
        <time>2011-07-21T17:21:51.604Z</time>
      </trkpt>
      <trkpt lat="44.83143" lon="0.9843">
        <ele>24.916527</ele>
        <time>2011-07-21T17:21:55.596Z</time>
      </trkpt>
      <trkpt lat="44.83143" lon="0.98461">
        <ele>24.916634</ele>
        <time>2011-07-21T17:21:59.599Z</time>
      </trkpt>
      <trkpt lat="44.83142" lon="0.98492">
        <ele>23.91674</ele>
        <time>2011-07-21T17:22:03.599Z</time>
      </trkpt>
      <trkpt lat="44.8314" lon="0.98523">
        <ele>23.916847</ele>
        <time>2011-07-21T17:22:07.594Z</time>
      </trkpt>
      <trkpt lat="44.83139" lon="0.98554">
        <ele>22.91695</ele>
        <time>2011-07-21T17:22:11.626Z</time>
      </trkpt>
      <trkpt lat="44.83139" lon="0.98584">
        <ele>21.917053</ele>
        <time>2011-07-21T17:22:15.598Z</time>
      </trkpt>
      <trkpt lat="44.83139" lon="0.98614">
        <ele>20.91716</ele>
        <time>2011-07-21T17:22:19.595Z</time>
      </trkpt>
      <trkpt lat="44.8314" lon="0.98645">
        <ele>19.917274</ele>
        <time>2011-07-21T17:22:23.593Z</time>
      </trkpt>
      <trkpt lat="44.83141" lon="0.98676">
        <ele>19.917393</ele>
        <time>2011-07-21T17:22:27.599Z</time>
      </trkpt>
      <trkpt lat="44.8314" lon="0.98709">
        <ele>19.9175</ele>
        <time>2011-07-21T17:22:31.598Z</time>
      </trkpt>
      <trkpt lat="44.83139" lon="0.9874">
        <ele>18.917606</ele>
        <time>2011-07-21T17:22:35.597Z</time>
      </trkpt>
      <trkpt lat="44.83139" lon="0.98771">
        <ele>18.917713</ele>
        <time>2011-07-21T17:22:39.595Z</time>
      </trkpt>
      <trkpt lat="44.8314" lon="0.98801">
        <ele>18.917828</ele>
        <time>2011-07-21T17:22:43.600Z</time>
      </trkpt>
      <trkpt lat="44.83138" lon="0.9883">
        <ele>18.917923</ele>
        <time>2011-07-21T17:22:47.599Z</time>
      </trkpt>
      <trkpt lat="44.83137" lon="0.98859">
        <ele>17.918026</ele>
        <time>2011-07-21T17:22:51.605Z</time>
      </trkpt>
      <trkpt lat="44.83138" lon="0.98888">
        <ele>17.918125</ele>
        <time>2011-07-21T17:22:55.595Z</time>
      </trkpt>
      <trkpt lat="44.83136" lon="0.98916">
        <ele>17.918221</ele>
        <time>2011-07-21T17:22:59.596Z</time>
      </trkpt>
      <trkpt lat="44.83133" lon="0.98943">
        <ele>17.918304</ele>
        <time>2011-07-21T17:23:03.599Z</time>
      </trkpt>
      <trkpt lat="44.83129" lon="0.9897">
        <ele>17.918381</ele>
        <time>2011-07-21T17:23:07.591Z</time>
      </trkpt>
      <trkpt lat="44.83124" lon="0.98996">
        <ele>17.918453</ele>
        <time>2011-07-21T17:23:11.593Z</time>
      </trkpt>
      <trkpt lat="44.83113" lon="0.99023">
        <ele>17.918507</ele>
        <time>2011-07-21T17:23:16.590Z</time>
      </trkpt>
      <trkpt lat="44.83103" lon="0.9905">
        <ele>17.918564</ele>
        <time>2011-07-21T17:23:21.611Z</time>
      </trkpt>
      <trkpt lat="44.8309" lon="0.99069">
        <ele>16.918571</ele>
        <time>2011-07-21T17:23:25.593Z</time>
      </trkpt>
      <trkpt lat="44.83075" lon="0.99089">
        <ele>16.918575</ele>
        <time>2011-07-21T17:23:29.596Z</time>
      </trkpt>
      <trkpt lat="44.83063" lon="0.99114">
        <ele>14.918617</ele>
        <time>2011-07-21T17:23:34.598Z</time>
      </trkpt>
      <trkpt lat="44.83073" lon="0.99138">
        <ele>13.918739</ele>
        <time>2011-07-21T17:23:38.599Z</time>
      </trkpt>
      <trkpt lat="44.83092" lon="0.99157">
        <ele>13.918884</ele>
        <time>2011-07-21T17:23:42.599Z</time>
      </trkpt>
      <trkpt lat="44.8311" lon="0.99172">
        <ele>13.919014</ele>
        <time>2011-07-21T17:23:46.596Z</time>
      </trkpt>
      <trkpt lat="44.83125" lon="0.9919">
        <ele>12.919147</ele>
        <time>2011-07-21T17:23:50.600Z</time>
      </trkpt>
      <trkpt lat="44.83137" lon="0.99211">
        <ele>13.919273</ele>
        <time>2011-07-21T17:23:54.602Z</time>
      </trkpt>
      <trkpt lat="44.8315" lon="0.99231">
        <ele>13.919399</ele>
        <time>2011-07-21T17:23:58.595Z</time>
      </trkpt>
      <trkpt lat="44.83163" lon="0.99251">
        <ele>13.919521</ele>
        <time>2011-07-21T17:24:02.598Z</time>
      </trkpt>
      <trkpt lat="44.83176" lon="0.99271">
        <ele>13.919647</ele>
        <time>2011-07-21T17:24:06.598Z</time>
      </trkpt>
      <trkpt lat="44.83188" lon="0.99291">
        <ele>14.919777</ele>
        <time>2011-07-21T17:24:10.594Z</time>
      </trkpt>
      <trkpt lat="44.83202" lon="0.99312">
        <ele>14.919907</ele>
        <time>2011-07-21T17:24:14.596Z</time>
      </trkpt>
      <trkpt lat="44.83215" lon="0.99333">
        <ele>14.920036</ele>
        <time>2011-07-21T17:24:18.597Z</time>
      </trkpt>
      <trkpt lat="44.83226" lon="0.99353">
        <ele>14.920155</ele>
        <time>2011-07-21T17:24:22.595Z</time>
      </trkpt>
      <trkpt lat="44.83239" lon="0.99376">
        <ele>14.920296</ele>
        <time>2011-07-21T17:24:27.594Z</time>
      </trkpt>
      <trkpt lat="44.83252" lon="0.99398">
        <ele>14.920425</ele>
        <time>2011-07-21T17:24:33.610Z</time>
      </trkpt>
      <trkpt lat="44.83265" lon="0.9942">
        <ele>14.920559</ele>
        <time>2011-07-21T17:24:39.599Z</time>
      </trkpt>
      <trkpt lat="44.83279" lon="0.99443">
        <ele>15.9207</ele>
        <time>2011-07-21T17:24:45.612Z</time>
      </trkpt>
      <trkpt lat="44.83291" lon="0.99464">
        <ele>15.920822</ele>
        <time>2011-07-21T17:24:50.599Z</time>
      </trkpt>
      <trkpt lat="44.83303" lon="0.99485">
        <ele>16.920952</ele>
        <time>2011-07-21T17:24:55.617Z</time>
      </trkpt>
      <trkpt lat="44.83315" lon="0.99508">
        <ele>16.921082</ele>
        <time>2011-07-21T17:25:01.596Z</time>
      </trkpt>
      <trkpt lat="44.83322" lon="0.9952">
        <ele>16.92115</ele>
        <time>2011-07-21T17:25:04.589Z</time>
      </trkpt>
      <trkpt lat="44.83326" lon="0.99528">
        <ele>15.921196</ele>
        <time>2011-07-21T17:25:06.597Z</time>
      </trkpt>
      <trkpt lat="44.8333" lon="0.99536">
        <ele>15.921249</ele>
        <time>2011-07-21T17:25:08.594Z</time>
      </trkpt>
      <trkpt lat="44.83335" lon="0.99544">
        <ele>14.921295</ele>
        <time>2011-07-21T17:25:10.595Z</time>
      </trkpt>
      <trkpt lat="44.83339" lon="0.99552">
        <ele>14.921341</ele>
        <time>2011-07-21T17:25:12.588Z</time>
      </trkpt>
      <trkpt lat="44.83344" lon="0.99559">
        <ele>13.921391</ele>
        <time>2011-07-21T17:25:14.598Z</time>
      </trkpt>
      <trkpt lat="44.83349" lon="0.99567">
        <ele>12.921436</ele>
        <time>2011-07-21T17:25:16.591Z</time>
      </trkpt>
      <trkpt lat="44.83353" lon="0.99575">
        <ele>10.921474</ele>
        <time>2011-07-21T17:25:18.599Z</time>
      </trkpt>
      <trkpt lat="44.83356" lon="0.99584">
        <ele>10.921513</ele>
        <time>2011-07-21T17:25:20.598Z</time>
      </trkpt>
      <trkpt lat="44.83356" lon="0.99593">
        <ele>9.921555</ele>
        <time>2011-07-21T17:25:22.594Z</time>
      </trkpt>
      <trkpt lat="44.83351" lon="0.99601">
        <ele>8.921558</ele>
        <time>2011-07-21T17:25:24.597Z</time>
      </trkpt>
      <trkpt lat="44.83332" lon="0.99617">
        <ele>6.921543</ele>
        <time>2011-07-21T17:25:29.596Z</time>
      </trkpt>
      <trkpt lat="44.83314" lon="0.99629">
        <ele>6.921505</ele>
        <time>2011-07-21T17:25:33.592Z</time>
      </trkpt>
      <trkpt lat="44.83296" lon="0.99642">
        <ele>7.921478</ele>
        <time>2011-07-21T17:25:37.594Z</time>
      </trkpt>
      <trkpt lat="44.83292" lon="0.99646">
        <ele>8.921467</ele>
        <time>2011-07-21T17:25:38.594Z</time>
      </trkpt>
      <trkpt lat="44.83288" lon="0.99649">
        <ele>8.921467</ele>
        <time>2011-07-21T17:25:39.597Z</time>
      </trkpt>
      <trkpt lat="44.83283" lon="0.99653">
        <ele>8.921459</ele>
        <time>2011-07-21T17:25:40.599Z</time>
      </trkpt>
      <trkpt lat="44.83266" lon="0.99665">
        <ele>6.921432</ele>
        <time>2011-07-21T17:25:44.594Z</time>
      </trkpt>
      <trkpt lat="44.8325" lon="0.99678">
        <ele>6.921402</ele>
        <time>2011-07-21T17:25:48.594Z</time>
      </trkpt>
      <trkpt lat="44.83245" lon="0.99681">
        <ele>6.921394</ele>
        <time>2011-07-21T17:25:49.595Z</time>
      </trkpt>
      <trkpt lat="44.8324" lon="0.99684">
        <ele>6.921379</ele>
        <time>2011-07-21T17:25:50.595Z</time>
      </trkpt>
      <trkpt lat="44.83235" lon="0.99686">
        <ele>6.921368</ele>
        <time>2011-07-21T17:25:51.601Z</time>
      </trkpt>
      <trkpt lat="44.83229" lon="0.99689">
        <ele>6.921356</ele>
        <time>2011-07-21T17:25:52.594Z</time>
      </trkpt>
      <trkpt lat="44.83224" lon="0.99692">
        <ele>6.921345</ele>
        <time>2011-07-21T17:25:53.596Z</time>
      </trkpt>
      <trkpt lat="44.8322" lon="0.99694">
        <ele>6.921341</ele>
        <time>2011-07-21T17:25:54.596Z</time>
      </trkpt>
      <trkpt lat="44.83215" lon="0.99697">
        <ele>6.921322</ele>
        <time>2011-07-21T17:25:55.594Z</time>
      </trkpt>
      <trkpt lat="44.83211" lon="0.99699">
        <ele>5.921314</ele>
        <time>2011-07-21T17:25:56.598Z</time>
      </trkpt>
      <trkpt lat="44.83206" lon="0.99702">
        <ele>5.921307</ele>
        <time>2011-07-21T17:25:57.596Z</time>
      </trkpt>
      <trkpt lat="44.83202" lon="0.99705">
        <ele>5.921303</ele>
        <time>2011-07-21T17:25:58.590Z</time>
      </trkpt>
      <trkpt lat="44.83198" lon="0.99708">
        <ele>5.921295</ele>
        <time>2011-07-21T17:25:59.597Z</time>
      </trkpt>
      <trkpt lat="44.8319" lon="0.99714">
        <ele>6.921276</ele>
        <time>2011-07-21T17:26:01.592Z</time>
      </trkpt>
      <trkpt lat="44.83182" lon="0.99718">
        <ele>6.921265</ele>
        <time>2011-07-21T17:26:03.597Z</time>
      </trkpt>
      <trkpt lat="44.83178" lon="0.9972">
        <ele>6.921246</ele>
        <time>2011-07-21T17:26:04.617Z</time>
      </trkpt>
      <trkpt lat="44.83169" lon="0.99724">
        <ele>6.921227</ele>
        <time>2011-07-21T17:26:06.597Z</time>
      </trkpt>
      <trkpt lat="44.83165" lon="0.99725">
        <ele>6.921211</ele>
        <time>2011-07-21T17:26:07.593Z</time>
      </trkpt>
      <trkpt lat="44.8316" lon="0.99726">
        <ele>6.921196</ele>
        <time>2011-07-21T17:26:08.598Z</time>
      </trkpt>
      <trkpt lat="44.83155" lon="0.99727">
        <ele>6.921181</ele>
        <time>2011-07-21T17:26:09.605Z</time>
      </trkpt>
      <trkpt lat="44.8315" lon="0.99728">
        <ele>6.921165</ele>
        <time>2011-07-21T17:26:10.595Z</time>
      </trkpt>
      <trkpt lat="44.83145" lon="0.99729">
        <ele>6.921146</ele>
        <time>2011-07-21T17:26:11.590Z</time>
      </trkpt>
      <trkpt lat="44.83135" lon="0.99731">
        <ele>6.921112</ele>
        <time>2011-07-21T17:26:13.604Z</time>
      </trkpt>
      <trkpt lat="44.8313" lon="0.99732">
        <ele>5.921089</ele>
        <time>2011-07-21T17:26:14.603Z</time>
      </trkpt>
      <trkpt lat="44.83125" lon="0.99733">
        <ele>5.921074</ele>
        <time>2011-07-21T17:26:15.599Z</time>
      </trkpt>
      <trkpt lat="44.8312" lon="0.99734">
        <ele>5.921055</ele>
        <time>2011-07-21T17:26:16.594Z</time>
      </trkpt>
      <trkpt lat="44.83115" lon="0.99735">
        <ele>4.921036</ele>
        <time>2011-07-21T17:26:17.594Z</time>
      </trkpt>
      <trkpt lat="44.83109" lon="0.99736">
        <ele>5.921021</ele>
        <time>2011-07-21T17:26:18.598Z</time>
      </trkpt>
      <trkpt lat="44.83104" lon="0.99737">
        <ele>5.920998</ele>
        <time>2011-07-21T17:26:19.596Z</time>
      </trkpt>
      <trkpt lat="44.83099" lon="0.99738">
        <ele>5.920982</ele>
        <time>2011-07-21T17:26:20.598Z</time>
      </trkpt>
      <trkpt lat="44.83094" lon="0.99739">
        <ele>5.920959</ele>
        <time>2011-07-21T17:26:21.600Z</time>
      </trkpt>
      <trkpt lat="44.83088" lon="0.99741">
        <ele>5.92094</ele>
        <time>2011-07-21T17:26:22.594Z</time>
      </trkpt>
      <trkpt lat="44.83083" lon="0.99742">
        <ele>5.920925</ele>
        <time>2011-07-21T17:26:23.606Z</time>
      </trkpt>
      <trkpt lat="44.83078" lon="0.99743">
        <ele>5.92091</ele>
        <time>2011-07-21T17:26:24.598Z</time>
      </trkpt>
      <trkpt lat="44.83073" lon="0.99744">
        <ele>5.920887</ele>
        <time>2011-07-21T17:26:25.586Z</time>
      </trkpt>
      <trkpt lat="44.83068" lon="0.99745">
        <ele>5.920872</ele>
        <time>2011-07-21T17:26:26.591Z</time>
      </trkpt>
      <trkpt lat="44.83063" lon="0.99747">
        <ele>5.920853</ele>
        <time>2011-07-21T17:26:27.592Z</time>
      </trkpt>
      <trkpt lat="44.83058" lon="0.99747">
        <ele>5.92083</ele>
        <time>2011-07-21T17:26:28.593Z</time>
      </trkpt>
      <trkpt lat="44.83053" lon="0.99748">
        <ele>5.920818</ele>
        <time>2011-07-21T17:26:29.597Z</time>
      </trkpt>
      <trkpt lat="44.83037" lon="0.99751">
        <ele>5.920761</ele>
        <time>2011-07-21T17:26:32.597Z</time>
      </trkpt>
      <trkpt lat="44.83032" lon="0.99753">
        <ele>5.920746</ele>
        <time>2011-07-21T17:26:33.604Z</time>
      </trkpt>
      <trkpt lat="44.83027" lon="0.99754">
        <ele>5.920727</ele>
        <time>2011-07-21T17:26:34.597Z</time>
      </trkpt>
      <trkpt lat="44.83022" lon="0.99755">
        <ele>5.920712</ele>
        <time>2011-07-21T17:26:35.602Z</time>
      </trkpt>
      <trkpt lat="44.83017" lon="0.99757">
        <ele>5.920692</ele>
        <time>2011-07-21T17:26:36.618Z</time>
      </trkpt>
      <trkpt lat="44.83012" lon="0.99758">
        <ele>4.920685</ele>
        <time>2011-07-21T17:26:37.592Z</time>
      </trkpt>
      <trkpt lat="44.83007" lon="0.99759">
        <ele>4.920666</ele>
        <time>2011-07-21T17:26:38.637Z</time>
      </trkpt>
      <trkpt lat="44.83002" lon="0.9976">
        <ele>5.920647</ele>
        <time>2011-07-21T17:26:39.594Z</time>
      </trkpt>
      <trkpt lat="44.82997" lon="0.9976">
        <ele>5.920628</ele>
        <time>2011-07-21T17:26:40.594Z</time>
      </trkpt>
      <trkpt lat="44.82992" lon="0.99761">
        <ele>5.920609</ele>
        <time>2011-07-21T17:26:41.598Z</time>
      </trkpt>
      <trkpt lat="44.82987" lon="0.99762">
        <ele>5.920593</ele>
        <time>2011-07-21T17:26:42.597Z</time>
      </trkpt>
      <trkpt lat="44.82982" lon="0.99763">
        <ele>5.92057</ele>
        <time>2011-07-21T17:26:43.599Z</time>
      </trkpt>
      <trkpt lat="44.82978" lon="0.99763">
        <ele>5.920559</ele>
        <time>2011-07-21T17:26:44.597Z</time>
      </trkpt>
      <trkpt lat="44.82964" lon="0.99766">
        <ele>5.920498</ele>
        <time>2011-07-21T17:26:47.594Z</time>
      </trkpt>
      <trkpt lat="44.82959" lon="0.99767">
        <ele>5.920475</ele>
        <time>2011-07-21T17:26:48.600Z</time>
      </trkpt>
      <trkpt lat="44.82954" lon="0.99767">
        <ele>4.920467</ele>
        <time>2011-07-21T17:26:49.592Z</time>
      </trkpt>
      <trkpt lat="44.8295" lon="0.99768">
        <ele>4.920448</ele>
        <time>2011-07-21T17:26:50.595Z</time>
      </trkpt>
      <trkpt lat="44.82945" lon="0.99769">
        <ele>5.920437</ele>
        <time>2011-07-21T17:26:51.597Z</time>
      </trkpt>
      <trkpt lat="44.82936" lon="0.9977">
        <ele>5.920395</ele>
        <time>2011-07-21T17:26:53.594Z</time>
      </trkpt>
      <trkpt lat="44.82931" lon="0.9977">
        <ele>5.92038</ele>
        <time>2011-07-21T17:26:54.592Z</time>
      </trkpt>
      <trkpt lat="44.82922" lon="0.99771">
        <ele>5.920345</ele>
        <time>2011-07-21T17:26:56.595Z</time>
      </trkpt>
      <trkpt lat="44.82903" lon="0.99776">
        <ele>4.920284</ele>
        <time>2011-07-21T17:27:01.592Z</time>
      </trkpt>
    </trkseg>
  </trk>
</gpx>